Terminal Aerodrome Forecast
Issued by NWS Wilmington, OH

Current Version | Previous Version | Graphics & Text | Print | Product List | Glossary On
Versions: 1 2 3 4 5 6 7 8 9 10 11 12 13 14 15 16 17 18 19 20 21 22 23 24 25 26 27 28 29 30 31
991
FTUS41 KILN 281138
TAFCMH
TAF
KCMH 281138Z 2812/2912 16006KT P6SM SCT080 OVC200
     FM281400 16008KT P6SM -SHRA VCTS SCT050CB OVC080
      TEMPO 2814/2818 4SM TSRA BR OVC050CB
     FM282100 15008KT 4SM -TSRA BR OVC050CB
     FM290000 10006KT P6SM VCSH BKN040
     FM290400 04004KT 4SM BR BKN015
     FM290800 04004KT 2SM BR OVC006=

USA.gov is the U.S. government's official web portal to all federal, state and local government web resources and services.